sensor_id;sensor_type;location;lat;lon;timestamp;P1;durP1;ratioP1;P2;durP2;ratioP2
71622;SDS011;59473;53.214;5.728;2022-07-22T00:01:56;7.68;;;1.73;;
71622;SDS011;59473;53.214;5.728;2022-07-22T00:04:21;8.87;;;1.70;;
71622;SDS011;59473;53.214;5.728;2022-07-22T00:06:47;10.47;;;1.80;;
71622;SDS011;59473;53.214;5.728;2022-07-22T00:09:12;6.83;;;1.97;;
71622;SDS011;59473;53.214;5.728;2022-07-22T00:11:37;9.67;;;1.90;;
71622;SDS011;59473;53.214;5.728;2022-07-22T00:14:03;7.93;;;1.60;;
71622;SDS011;59473;53.214;5.728;2022-07-22T00:16:28;13.27;;;1.93;;
71622;SDS011;59473;53.214;5.728;2022-07-22T00:18:53;9.13;;;1.40;;
71622;SDS011;59473;53.214;5.728;2022-07-22T00:21:19;6.23;;;1.63;;
71622;SDS011;59473;53.214;5.728;2022-07-22T00:23:44;11.13;;;1.80;;
71622;SDS011;59473;53.214;5.728;2022-07-22T00:26:09;7.90;;;2.17;;
71622;SDS011;59473;53.214;5.728;2022-07-22T00:28:35;8.93;;;2.10;;
71622;SDS011;59473;53.214;5.728;2022-07-22T00:31:00;6.80;;;1.83;;
71622;SDS011;59473;53.214;5.728;2022-07-22T00:33:25;7.70;;;2.13;;
71622;SDS011;59473;53.214;5.728;2022-07-22T00:35:51;7.80;;;1.93;;
71622;SDS011;59473;53.214;5.728;2022-07-22T00:38:16;10.73;;;2.00;;
71622;SDS011;59473;53.214;5.728;2022-07-22T00:40:41;12.53;;;2.37;;
71622;SDS011;59473;53.214;5.728;2022-07-22T00:43:07;8.83;;;2.30;;
71622;SDS011;59473;53.214;5.728;2022-07-22T00:45:32;8.65;;;2.20;;
71622;SDS011;59473;53.214;5.728;2022-07-22T00:47:57;10.67;;;2.40;;
71622;SDS011;59473;53.214;5.728;2022-07-22T00:50:23;8.33;;;2.07;;
71622;SDS011;59473;53.214;5.728;2022-07-22T00:52:48;11.73;;;2.83;;
71622;SDS011;59473;53.214;5.728;2022-07-22T00:55:14;9.65;;;2.60;;
71622;SDS011;59473;53.214;5.728;2022-07-22T00:57:39;9.93;;;2.75;;
71622;SDS011;59473;53.214;5.728;2022-07-22T01:00:06;9.82;;;2.78;;
71622;SDS011;59473;53.214;5.728;2022-07-22T01:02:31;9.63;;;2.53;;
71622;SDS011;59473;53.214;5.728;2022-07-22T01:04:56;9.30;;;2.10;;
71622;SDS011;59473;53.214;5.728;2022-07-22T01:07:22;12.25;;;2.42;;
71622;SDS011;59473;53.214;5.728;2022-07-22T01:09:47;15.38;;;2.40;;
71622;SDS011;59473;53.214;5.728;2022-07-22T01:12:12;9.80;;;2.40;;
71622;SDS011;59473;53.214;5.728;2022-07-22T01:14:37;9.38;;;2.30;;
71622;SDS011;59473;53.214;5.728;2022-07-22T01:17:03;11.40;;;2.80;;
71622;SDS011;59473;53.214;5.728;2022-07-22T01:19:28;9.33;;;2.73;;
71622;SDS011;59473;53.214;5.728;2022-07-22T01:21:53;10.13;;;2.27;;
71622;SDS011;59473;53.214;5.728;2022-07-22T01:24:19;12.57;;;2.33;;
71622;SDS011;59473;53.214;5.728;2022-07-22T01:26:44;7.83;;;2.10;;
71622;SDS011;59473;53.214;5.728;2022-07-22T01:29:09;10.00;;;2.20;;
71622;SDS011;59473;53.214;5.728;2022-07-22T01:31:34;8.90;;;2.03;;
71622;SDS011;59473;53.214;5.728;2022-07-22T01:34:00;8.20;;;2.10;;
71622;SDS011;59473;53.214;5.728;2022-07-22T01:36:25;7.20;;;2.80;;
71622;SDS011;59473;53.214;5.728;2022-07-22T01:38:50;4.90;;;2.00;;
71622;SDS011;59473;53.214;5.728;2022-07-22T01:41:15;7.32;;;2.05;;
71622;SDS011;59473;53.214;5.728;2022-07-22T01:43:41;7.63;;;2.45;;
71622;SDS011;59473;53.214;5.728;2022-07-22T01:46:06;11.48;;;2.40;;
71622;SDS011;59473;53.214;5.728;2022-07-22T01:48:32;7.28;;;2.17;;
71622;SDS011;59473;53.214;5.728;2022-07-22T01:50:58;10.65;;;2.78;;
71622;SDS011;59473;53.214;5.728;2022-07-22T01:53:23;10.07;;;2.83;;
71622;SDS011;59473;53.214;5.728;2022-07-22T01:55:48;7.10;;;2.33;;
71622;SDS011;59473;53.214;5.728;2022-07-22T01:58:14;10.80;;;2.70;;
71622;SDS011;59473;53.214;5.728;2022-07-22T02:00:39;8.27;;;2.60;;
71622;SDS011;59473;53.214;5.728;2022-07-22T02:03:04;9.20;;;2.80;;
71622;SDS011;59473;53.214;5.728;2022-07-22T02:05:30;9.80;;;2.13;;
71622;SDS011;59473;53.214;5.728;2022-07-22T02:07:59;8.90;;;2.57;;
71622;SDS011;59473;53.214;5.728;2022-07-22T02:10:24;9.57;;;2.17;;
71622;SDS011;59473;53.214;5.728;2022-07-22T02:12:50;10.03;;;2.73;;
71622;SDS011;59473;53.214;5.728;2022-07-22T02:15:15;8.97;;;2.50;;
71622;SDS011;59473;53.214;5.728;2022-07-22T02:17:40;7.67;;;2.60;;
71622;SDS011;59473;53.214;5.728;2022-07-22T02:20:05;7.83;;;2.30;;
71622;SDS011;59473;53.214;5.728;2022-07-22T02:22:31;10.82;;;2.35;;
71622;SDS011;59473;53.214;5.728;2022-07-22T02:24:56;8.82;;;1.90;;
71622;SDS011;59473;53.214;5.728;2022-07-22T02:27:21;7.68;;;2.13;;
71622;SDS011;59473;53.214;5.728;2022-07-22T02:29:46;7.50;;;2.17;;
71622;SDS011;59473;53.214;5.728;2022-07-22T02:32:12;5.70;;;2.03;;
71622;SDS011;59473;53.214;5.728;2022-07-22T02:34:37;8.93;;;2.33;;
71622;SDS011;59473;53.214;5.728;2022-07-22T02:37:02;7.68;;;2.40;;
71622;SDS011;59473;53.214;5.728;2022-07-22T02:39:27;5.53;;;1.50;;
71622;SDS011;59473;53.214;5.728;2022-07-22T02:41:53;6.43;;;2.00;;
71622;SDS011;59473;53.214;5.728;2022-07-22T02:44:18;5.43;;;1.77;;
71622;SDS011;59473;53.214;5.728;2022-07-22T02:46:43;9.00;;;2.00;;
71622;SDS011;59473;53.214;5.728;2022-07-22T02:49:09;6.73;;;2.50;;
71622;SDS011;59473;53.214;5.728;2022-07-22T02:51:34;7.07;;;1.87;;
71622;SDS011;59473;53.214;5.728;2022-07-22T02:53:59;6.73;;;1.80;;
71622;SDS011;59473;53.214;5.728;2022-07-22T02:56:24;6.27;;;1.83;;
71622;SDS011;59473;53.214;5.728;2022-07-22T02:58:50;9.13;;;2.00;;
71622;SDS011;59473;53.214;5.728;2022-07-22T03:01:17;7.20;;;1.85;;
71622;SDS011;59473;53.214;5.728;2022-07-22T03:03:43;3.93;;;1.67;;
71622;SDS011;59473;53.214;5.728;2022-07-22T03:06:08;7.93;;;2.10;;
71622;SDS011;59473;53.214;5.728;2022-07-22T03:08:33;9.63;;;2.50;;
71622;SDS011;59473;53.214;5.728;2022-07-22T03:10:58;8.07;;;2.33;;
71622;SDS011;59473;53.214;5.728;2022-07-22T03:13:23;10.47;;;2.43;;
71622;SDS011;59473;53.214;5.728;2022-07-22T03:15:49;7.77;;;2.80;;
71622;SDS011;59473;53.214;5.728;2022-07-22T03:18:14;9.10;;;2.50;;
71622;SDS011;59473;53.214;5.728;2022-07-22T03:20:39;9.60;;;2.73;;
71622;SDS011;59473;53.214;5.728;2022-07-22T03:23:04;10.70;;;2.43;;
71622;SDS011;59473;53.214;5.728;2022-07-22T03:25:30;11.43;;;2.30;;
71622;SDS011;59473;53.214;5.728;2022-07-22T03:27:57;10.52;;;2.35;;
71622;SDS011;59473;53.214;5.728;2022-07-22T03:30:22;9.10;;;1.87;;
71622;SDS011;59473;53.214;5.728;2022-07-22T03:32:48;8.70;;;2.13;;
71622;SDS011;59473;53.214;5.728;2022-07-22T03:35:13;10.67;;;2.30;;
71622;SDS011;59473;53.214;5.728;2022-07-22T03:37:39;5.17;;;1.60;;
71622;SDS011;59473;53.214;5.728;2022-07-22T03:40:05;6.53;;;1.95;;
71622;SDS011;59473;53.214;5.728;2022-07-22T03:42:30;6.03;;;1.60;;
71622;SDS011;59473;53.214;5.728;2022-07-22T03:44:55;11.03;;;2.23;;
71622;SDS011;59473;53.214;5.728;2022-07-22T03:47:21;6.60;;;2.07;;
71622;SDS011;59473;53.214;5.728;2022-07-22T03:49:47;6.22;;;1.83;;
71622;SDS011;59473;53.214;5.728;2022-07-22T03:52:12;8.40;;;1.97;;
71622;SDS011;59473;53.214;5.728;2022-07-22T03:54:38;11.80;;;1.90;;
71622;SDS011;59473;53.214;5.728;2022-07-22T03:57:03;6.00;;;1.43;;
71622;SDS011;59473;53.214;5.728;2022-07-22T03:59:28;8.93;;;2.00;;
71622;SDS011;59473;53.214;5.728;2022-07-22T04:01:53;11.27;;;2.00;;
71622;SDS011;59473;53.214;5.728;2022-07-22T04:04:19;9.33;;;1.97;;
71622;SDS011;59473;53.214;5.728;2022-07-22T04:06:44;7.80;;;1.90;;
71622;SDS011;59473;53.214;5.728;2022-07-22T04:09:10;12.52;;;2.35;;
71622;SDS011;59473;53.214;5.728;2022-07-22T04:11:35;4.67;;;1.57;;
71622;SDS011;59473;53.214;5.728;2022-07-22T04:14:00;8.70;;;1.83;;
71622;SDS011;59473;53.214;5.728;2022-07-22T04:16:26;13.80;;;2.53;;
71622;SDS011;59473;53.214;5.728;2022-07-22T04:18:51;9.70;;;2.27;;
71622;SDS011;59473;53.214;5.728;2022-07-22T04:21:16;8.32;;;1.70;;
71622;SDS011;59473;53.214;5.728;2022-07-22T04:23:42;10.07;;;2.17;;
71622;SDS011;59473;53.214;5.728;2022-07-22T04:26:07;6.00;;;1.47;;
71622;SDS011;59473;53.214;5.728;2022-07-22T04:28:33;9.13;;;2.13;;
71622;SDS011;59473;53.214;5.728;2022-07-22T04:30:59;6.13;;;2.00;;
71622;SDS011;59473;53.214;5.728;2022-07-22T04:33:24;7.50;;;2.00;;
71622;SDS011;59473;53.214;5.728;2022-07-22T04:35:49;6.23;;;2.27;;
71622;SDS011;59473;53.214;5.728;2022-07-22T04:38:15;8.07;;;1.53;;
71622;SDS011;59473;53.214;5.728;2022-07-22T04:40:41;6.77;;;2.13;;
71622;SDS011;59473;53.214;5.728;2022-07-22T04:43:06;7.73;;;1.50;;
71622;SDS011;59473;53.214;5.728;2022-07-22T04:45:31;9.90;;;1.77;;
71622;SDS011;59473;53.214;5.728;2022-07-22T04:47:57;9.93;;;1.63;;
71622;SDS011;59473;53.214;5.728;2022-07-22T04:50:22;10.37;;;2.37;;
71622;SDS011;59473;53.214;5.728;2022-07-22T04:52:47;6.40;;;1.63;;
71622;SDS011;59473;53.214;5.728;2022-07-22T04:55:12;4.80;;;1.70;;
71622;SDS011;59473;53.214;5.728;2022-07-22T04:57:38;8.13;;;1.47;;
71622;SDS011;59473;53.214;5.728;2022-07-22T05:00:03;7.20;;;1.60;;
71622;SDS011;59473;53.214;5.728;2022-07-22T05:02:28;8.07;;;1.80;;
71622;SDS011;59473;53.214;5.728;2022-07-22T05:04:54;8.53;;;1.60;;
71622;SDS011;59473;53.214;5.728;2022-07-22T05:07:19;5.63;;;1.57;;
71622;SDS011;59473;53.214;5.728;2022-07-22T05:09:45;5.20;;;1.60;;
71622;SDS011;59473;53.214;5.728;2022-07-22T05:12:10;5.93;;;1.40;;
71622;SDS011;59473;53.214;5.728;2022-07-22T05:14:35;6.20;;;1.50;;
71622;SDS011;59473;53.214;5.728;2022-07-22T05:17:00;7.87;;;1.37;;
71622;SDS011;59473;53.214;5.728;2022-07-22T05:19:26;7.40;;;1.45;;
71622;SDS011;59473;53.214;5.728;2022-07-22T05:21:51;8.20;;;2.05;;
71622;SDS011;59473;53.214;5.728;2022-07-22T05:24:16;7.18;;;1.60;;
71622;SDS011;59473;53.214;5.728;2022-07-22T05:26:41;8.00;;;1.60;;
71622;SDS011;59473;53.214;5.728;2022-07-22T05:29:06;5.30;;;1.53;;
71622;SDS011;59473;53.214;5.728;2022-07-22T05:31:32;6.47;;;1.77;;
71622;SDS011;59473;53.214;5.728;2022-07-22T05:33:57;8.83;;;1.97;;
71622;SDS011;59473;53.214;5.728;2022-07-22T05:36:22;5.50;;;1.60;;
71622;SDS011;59473;53.214;5.728;2022-07-22T05:38:47;8.07;;;2.03;;
71622;SDS011;59473;53.214;5.728;2022-07-22T05:41:13;7.43;;;1.93;;
71622;SDS011;59473;53.214;5.728;2022-07-22T05:43:38;11.20;;;2.00;;
71622;SDS011;59473;53.214;5.728;2022-07-22T05:46:04;8.47;;;1.70;;
71622;SDS011;59473;53.214;5.728;2022-07-22T05:48:29;5.87;;;1.77;;
71622;SDS011;59473;53.214;5.728;2022-07-22T05:50:54;8.77;;;2.20;;
71622;SDS011;59473;53.214;5.728;2022-07-22T05:53:19;6.77;;;1.73;;
71622;SDS011;59473;53.214;5.728;2022-07-22T05:55:45;9.63;;;1.90;;
71622;SDS011;59473;53.214;5.728;2022-07-22T05:58:10;7.13;;;2.17;;
71622;SDS011;59473;53.214;5.728;2022-07-22T06:00:35;8.77;;;1.70;;
71622;SDS011;59473;53.214;5.728;2022-07-22T06:03:00;7.97;;;1.70;;
71622;SDS011;59473;53.214;5.728;2022-07-22T06:05:26;5.53;;;1.65;;
71622;SDS011;59473;53.214;5.728;2022-07-22T06:07:51;5.97;;;1.60;;
71622;SDS011;59473;53.214;5.728;2022-07-22T06:10:16;5.03;;;1.53;;
71622;SDS011;59473;53.214;5.728;2022-07-22T06:12:41;6.40;;;1.47;;
71622;SDS011;59473;53.214;5.728;2022-07-22T06:15:07;4.90;;;1.43;;
71622;SDS011;59473;53.214;5.728;2022-07-22T06:17:32;7.20;;;1.57;;
71622;SDS011;59473;53.214;5.728;2022-07-22T06:19:57;9.70;;;2.03;;
71622;SDS011;59473;53.214;5.728;2022-07-22T06:22:23;6.53;;;1.70;;
71622;SDS011;59473;53.214;5.728;2022-07-22T06:24:48;8.13;;;2.20;;
71622;SDS011;59473;53.214;5.728;2022-07-22T06:27:13;6.90;;;1.30;;
71622;SDS011;59473;53.214;5.728;2022-07-22T06:29:39;8.52;;;1.65;;
71622;SDS011;59473;53.214;5.728;2022-07-22T06:32:06;7.10;;;1.70;;
71622;SDS011;59473;53.214;5.728;2022-07-22T06:34:31;3.43;;;1.30;;
71622;SDS011;59473;53.214;5.728;2022-07-22T06:36:56;4.80;;;1.20;;
71622;SDS011;59473;53.214;5.728;2022-07-22T06:39:21;8.03;;;1.57;;
71622;SDS011;59473;53.214;5.728;2022-07-22T06:41:46;4.77;;;0.93;;
71622;SDS011;59473;53.214;5.728;2022-07-22T06:44:12;5.47;;;1.30;;
71622;SDS011;59473;53.214;5.728;2022-07-22T06:46:37;3.60;;;0.90;;
71622;SDS011;59473;53.214;5.728;2022-07-22T06:49:02;5.43;;;1.10;;
71622;SDS011;59473;53.214;5.728;2022-07-22T06:51:28;3.57;;;1.03;;
71622;SDS011;59473;53.214;5.728;2022-07-22T06:53:53;5.73;;;1.33;;
71622;SDS011;59473;53.214;5.728;2022-07-22T06:56:18;6.53;;;1.10;;
71622;SDS011;59473;53.214;5.728;2022-07-22T06:58:43;4.67;;;1.00;;
71622;SDS011;59473;53.214;5.728;2022-07-22T07:01:09;6.90;;;1.40;;
71622;SDS011;59473;53.214;5.728;2022-07-22T07:03:34;7.07;;;1.03;;
71622;SDS011;59473;53.214;5.728;2022-07-22T07:05:59;8.10;;;1.10;;
71622;SDS011;59473;53.214;5.728;2022-07-22T07:08:25;7.40;;;1.20;;
71622;SDS011;59473;53.214;5.728;2022-07-22T07:10:50;8.07;;;1.13;;
71622;SDS011;59473;53.214;5.728;2022-07-22T07:13:15;5.40;;;1.00;;
71622;SDS011;59473;53.214;5.728;2022-07-22T07:15:41;4.40;;;1.10;;
71622;SDS011;59473;53.214;5.728;2022-07-22T07:18:06;5.93;;;1.00;;
71622;SDS011;59473;53.214;5.728;2022-07-22T07:20:31;10.10;;;1.40;;
71622;SDS011;59473;53.214;5.728;2022-07-22T07:22:59;7.40;;;1.17;;
71622;SDS011;59473;53.214;5.728;2022-07-22T07:25:25;5.47;;;0.90;;
71622;SDS011;59473;53.214;5.728;2022-07-22T07:27:50;4.40;;;1.00;;
71622;SDS011;59473;53.214;5.728;2022-07-22T07:30:16;6.83;;;1.03;;
71622;SDS011;59473;53.214;5.728;2022-07-22T07:32:41;3.23;;;0.70;;
71622;SDS011;59473;53.214;5.728;2022-07-22T07:35:06;4.73;;;0.90;;
71622;SDS011;59473;53.214;5.728;2022-07-22T07:37:32;6.40;;;1.23;;
71622;SDS011;59473;53.214;5.728;2022-07-22T07:39:57;2.78;;;0.90;;
71622;SDS011;59473;53.214;5.728;2022-07-22T07:42:23;4.70;;;0.90;;
71622;SDS011;59473;53.214;5.728;2022-07-22T07:44:49;4.28;;;0.90;;
71622;SDS011;59473;53.214;5.728;2022-07-22T07:47:14;3.77;;;1.00;;
71622;SDS011;59473;53.214;5.728;2022-07-22T07:49:43;4.35;;;0.80;;
71622;SDS011;59473;53.214;5.728;2022-07-22T07:52:08;4.77;;;1.03;;
71622;SDS011;59473;53.214;5.728;2022-07-22T07:54:34;4.70;;;1.20;;
71622;SDS011;59473;53.214;5.728;2022-07-22T07:56:59;3.57;;;0.73;;
71622;SDS011;59473;53.214;5.728;2022-07-22T07:59:24;5.93;;;1.30;;
71622;SDS011;59473;53.214;5.728;2022-07-22T08:01:49;5.23;;;0.83;;
71622;SDS011;59473;53.214;5.728;2022-07-22T08:04:15;7.70;;;1.17;;
71622;SDS011;59473;53.214;5.728;2022-07-22T08:06:40;3.00;;;0.90;;
71622;SDS011;59473;53.214;5.728;2022-07-22T08:09:05;5.77;;;0.90;;
71622;SDS011;59473;53.214;5.728;2022-07-22T08:11:30;2.70;;;0.90;;
71622;SDS011;59473;53.214;5.728;2022-07-22T08:13:55;4.03;;;1.20;;
71622;SDS011;59473;53.214;5.728;2022-07-22T08:16:21;5.50;;;1.00;;
71622;SDS011;59473;53.214;5.728;2022-07-22T08:18:46;4.23;;;1.00;;
71622;SDS011;59473;53.214;5.728;2022-07-22T08:21:11;4.47;;;0.90;;
71622;SDS011;59473;53.214;5.728;2022-07-22T08:23:36;4.47;;;1.23;;
71622;SDS011;59473;53.214;5.728;2022-07-22T08:26:02;4.80;;;1.00;;
71622;SDS011;59473;53.214;5.728;2022-07-22T08:28:27;3.47;;;1.00;;
71622;SDS011;59473;53.214;5.728;2022-07-22T08:30:52;4.87;;;1.00;;
71622;SDS011;59473;53.214;5.728;2022-07-22T08:33:18;3.47;;;0.83;;
71622;SDS011;59473;53.214;5.728;2022-07-22T08:35:43;7.03;;;1.00;;
71622;SDS011;59473;53.214;5.728;2022-07-22T08:38:08;4.43;;;0.90;;
71622;SDS011;59473;53.214;5.728;2022-07-22T08:40:34;3.83;;;0.93;;
71622;SDS011;59473;53.214;5.728;2022-07-22T08:42:59;3.78;;;1.05;;
71622;SDS011;59473;53.214;5.728;2022-07-22T08:45:28;5.57;;;0.95;;
71622;SDS011;59473;53.214;5.728;2022-07-22T08:47:53;3.45;;;0.90;;
71622;SDS011;59473;53.214;5.728;2022-07-22T08:50:18;3.63;;;0.90;;
71622;SDS011;59473;53.214;5.728;2022-07-22T08:52:44;4.37;;;0.87;;
71622;SDS011;59473;53.214;5.728;2022-07-22T08:55:09;2.37;;;0.70;;
71622;SDS011;59473;53.214;5.728;2022-07-22T08:57:35;3.67;;;1.00;;
71622;SDS011;59473;53.214;5.728;2022-07-22T09:00:03;6.47;;;0.90;;
71622;SDS011;59473;53.214;5.728;2022-07-22T09:02:29;7.00;;;0.80;;
71622;SDS011;59473;53.214;5.728;2022-07-22T09:05:01;4.50;;;1.02;;
71622;SDS011;59473;53.214;5.728;2022-07-22T09:07:35;4.68;;;0.90;;
71622;SDS011;59473;53.214;5.728;2022-07-22T09:10:02;5.90;;;1.37;;
71622;SDS011;59473;53.214;5.728;2022-07-22T09:12:28;4.60;;;0.90;;
71622;SDS011;59473;53.214;5.728;2022-07-22T09:14:55;3.42;;;0.85;;
71622;SDS011;59473;53.214;5.728;2022-07-22T09:17:31;3.17;;;0.88;;
71622;SDS011;59473;53.214;5.728;2022-07-22T09:19:59;7.05;;;1.08;;
71622;SDS011;59473;53.214;5.728;2022-07-22T09:22:32;2.57;;;0.77;;
71622;SDS011;59473;53.214;5.728;2022-07-22T09:24:58;4.35;;;1.10;;
71622;SDS011;59473;53.214;5.728;2022-07-22T09:27:23;3.77;;;1.00;;
71622;SDS011;59473;53.214;5.728;2022-07-22T09:29:49;6.15;;;1.17;;
71622;SDS011;59473;53.214;5.728;2022-07-22T09:32:15;4.77;;;1.30;;
71622;SDS011;59473;53.214;5.728;2022-07-22T09:34:40;2.53;;;0.90;;
71622;SDS011;59473;53.214;5.728;2022-07-22T09:37:05;5.23;;;1.03;;
71622;SDS011;59473;53.214;5.728;2022-07-22T09:39:31;6.27;;;1.20;;
71622;SDS011;59473;53.214;5.728;2022-07-22T09:42:00;5.30;;;1.38;;
71622;SDS011;59473;53.214;5.728;2022-07-22T09:44:26;4.25;;;0.90;;
71622;SDS011;59473;53.214;5.728;2022-07-22T09:46:51;2.83;;;1.00;;
71622;SDS011;59473;53.214;5.728;2022-07-22T09:49:36;3.50;;;0.90;;
71622;SDS011;59473;53.214;5.728;2022-07-22T09:52:05;6.10;;;1.00;;
71622;SDS011;59473;53.214;5.728;2022-07-22T09:54:31;2.80;;;0.60;;
71622;SDS011;59473;53.214;5.728;2022-07-22T09:56:56;5.13;;;1.00;;
71622;SDS011;59473;53.214;5.728;2022-07-22T09:59:22;2.93;;;0.90;;
71622;SDS011;59473;53.214;5.728;2022-07-22T10:01:47;2.97;;;0.67;;
71622;SDS011;59473;53.214;5.728;2022-07-22T10:04:15;2.80;;;0.90;;
71622;SDS011;59473;53.214;5.728;2022-07-22T10:06:40;3.70;;;0.80;;
71622;SDS011;59473;53.214;5.728;2022-07-22T10:09:07;3.05;;;0.70;;
71622;SDS011;59473;53.214;5.728;2022-07-22T10:11:33;2.77;;;0.70;;
71622;SDS011;59473;53.214;5.728;2022-07-22T10:13:58;2.28;;;0.85;;
71622;SDS011;59473;53.214;5.728;2022-07-22T10:16:24;2.90;;;0.87;;
71622;SDS011;59473;53.214;5.728;2022-07-22T10:18:49;2.70;;;1.00;;
71622;SDS011;59473;53.214;5.728;2022-07-22T10:21:14;5.20;;;0.80;;
71622;SDS011;59473;53.214;5.728;2022-07-22T10:26:45;6.20;;;0.80;;
71622;SDS011;59473;53.214;5.728;2022-07-22T10:34:37;1.77;;;0.80;;
71622;SDS011;59473;53.214;5.728;2022-07-22T10:37:02;2.33;;;0.60;;
71622;SDS011;59473;53.214;5.728;2022-07-22T10:39:27;8.90;;;0.83;;
71622;SDS011;59473;53.214;5.728;2022-07-22T10:41:53;2.07;;;0.60;;
71622;SDS011;59473;53.214;5.728;2022-07-22T10:47:02;2.60;;;0.60;;
71622;SDS011;59473;53.214;5.728;2022-07-22T10:49:27;3.75;;;0.80;;
71622;SDS011;59473;53.214;5.728;2022-07-22T10:52:08;4.82;;;0.82;;
71622;SDS011;59473;53.214;5.728;2022-07-22T10:54:33;6.20;;;0.82;;
71622;SDS011;59473;53.214;5.728;2022-07-22T10:56:59;3.13;;;0.93;;
71622;SDS011;59473;53.214;5.728;2022-07-22T10:59:24;5.68;;;1.20;;
71622;SDS011;59473;53.214;5.728;2022-07-22T11:01:50;4.37;;;0.77;;
71622;SDS011;59473;53.214;5.728;2022-07-22T11:04:20;3.15;;;0.90;;
71622;SDS011;59473;53.214;5.728;2022-07-22T11:06:47;3.97;;;0.93;;
71622;SDS011;59473;53.214;5.728;2022-07-22T11:09:13;4.70;;;0.80;;
71622;SDS011;59473;53.214;5.728;2022-07-22T11:11:48;4.38;;;0.88;;
71622;SDS011;59473;53.214;5.728;2022-07-22T11:14:26;3.90;;;1.10;;
71622;SDS011;59473;53.214;5.728;2022-07-22T11:16:53;11.35;;;1.05;;
71622;SDS011;59473;53.214;5.728;2022-07-22T11:19:22;7.18;;;1.40;;
71622;SDS011;59473;53.214;5.728;2022-07-22T11:21:51;9.25;;;1.20;;
71622;SDS011;59473;53.214;5.728;2022-07-22T11:24:17;4.80;;;1.10;;
71622;SDS011;59473;53.214;5.728;2022-07-22T11:26:44;3.90;;;1.20;;
71622;SDS011;59473;53.214;5.728;2022-07-22T11:29:10;4.95;;;1.00;;
71622;SDS011;59473;53.214;5.728;2022-07-22T11:31:36;4.93;;;1.23;;
71622;SDS011;59473;53.214;5.728;2022-07-22T11:34:05;7.78;;;1.15;;
71622;SDS011;59473;53.214;5.728;2022-07-22T11:36:31;4.13;;;1.00;;
71622;SDS011;59473;53.214;5.728;2022-07-22T11:38:57;5.07;;;1.25;;
71622;SDS011;59473;53.214;5.728;2022-07-22T11:41:22;4.53;;;1.10;;
71622;SDS011;59473;53.214;5.728;2022-07-22T11:43:48;6.33;;;1.03;;
71622;SDS011;59473;53.214;5.728;2022-07-22T11:46:14;5.65;;;1.10;;
71622;SDS011;59473;53.214;5.728;2022-07-22T11:48:40;3.47;;;1.08;;
71622;SDS011;59473;53.214;5.728;2022-07-22T11:51:07;3.65;;;0.90;;
71622;SDS011;59473;53.214;5.728;2022-07-22T11:53:34;5.53;;;1.20;;
71622;SDS011;59473;53.214;5.728;2022-07-22T11:56:00;4.03;;;1.33;;
71622;SDS011;59473;53.214;5.728;2022-07-22T12:01:04;8.55;;;1.02;;
71622;SDS011;59473;53.214;5.728;2022-07-22T12:03:30;6.63;;;1.00;;
71622;SDS011;59473;53.214;5.728;2022-07-22T12:05:55;5.13;;;0.70;;
71622;SDS011;59473;53.214;5.728;2022-07-22T12:08:21;8.63;;;1.00;;
71622;SDS011;59473;53.214;5.728;2022-07-22T12:10:46;5.32;;;1.02;;
71622;SDS011;59473;53.214;5.728;2022-07-22T12:13:11;6.63;;;1.10;;
71622;SDS011;59473;53.214;5.728;2022-07-22T12:15:38;6.93;;;1.10;;
71622;SDS011;59473;53.214;5.728;2022-07-22T12:18:20;8.30;;;1.23;;
71622;SDS011;59473;53.214;5.728;2022-07-22T12:20:47;6.95;;;1.20;;
71622;SDS011;59473;53.214;5.728;2022-07-22T12:23:13;6.43;;;1.10;;
71622;SDS011;59473;53.214;5.728;2022-07-22T12:25:51;5.35;;;1.27;;
71622;SDS011;59473;53.214;5.728;2022-07-22T12:28:16;6.10;;;1.73;;
71622;SDS011;59473;53.214;5.728;2022-07-22T12:30:42;7.27;;;1.30;;
71622;SDS011;59473;53.214;5.728;2022-07-22T12:33:14;4.30;;;1.13;;
71622;SDS011;59473;53.214;5.728;2022-07-22T12:35:40;8.18;;;1.10;;
71622;SDS011;59473;53.214;5.728;2022-07-22T12:38:06;4.13;;;1.00;;
71622;SDS011;59473;53.214;5.728;2022-07-22T12:40:31;8.77;;;1.60;;
71622;SDS011;59473;53.214;5.728;2022-07-22T12:45:29;4.65;;;1.30;;
71622;SDS011;59473;53.214;5.728;2022-07-22T12:52:52;6.80;;;1.40;;
71622;SDS011;59473;53.214;5.728;2022-07-22T12:55:18;4.05;;;1.13;;
71622;SDS011;59473;53.214;5.728;2022-07-22T12:57:43;4.63;;;1.03;;
71622;SDS011;59473;53.214;5.728;2022-07-22T13:00:09;5.30;;;1.00;;
71622;SDS011;59473;53.214;5.728;2022-07-22T13:02:35;3.13;;;1.00;;
71622;SDS011;59473;53.214;5.728;2022-07-22T13:05:00;5.20;;;1.10;;
71622;SDS011;59473;53.214;5.728;2022-07-22T13:07:26;6.53;;;1.00;;
71622;SDS011;59473;53.214;5.728;2022-07-22T13:09:51;5.80;;;1.50;;
71622;SDS011;59473;53.214;5.728;2022-07-22T13:12:16;5.43;;;1.20;;
71622;SDS011;59473;53.214;5.728;2022-07-22T13:14:41;4.63;;;1.00;;
71622;SDS011;59473;53.214;5.728;2022-07-22T13:17:07;6.17;;;0.97;;
71622;SDS011;59473;53.214;5.728;2022-07-22T13:19:32;7.57;;;1.20;;
71622;SDS011;59473;53.214;5.728;2022-07-22T13:21:57;5.67;;;1.40;;
71622;SDS011;59473;53.214;5.728;2022-07-22T13:24:22;7.93;;;1.43;;
71622;SDS011;59473;53.214;5.728;2022-07-22T13:26:48;3.77;;;1.03;;
71622;SDS011;59473;53.214;5.728;2022-07-22T13:29:13;5.83;;;1.33;;
71622;SDS011;59473;53.214;5.728;2022-07-22T13:31:38;4.37;;;1.20;;
71622;SDS011;59473;53.214;5.728;2022-07-22T13:34:03;5.10;;;1.40;;
71622;SDS011;59473;53.214;5.728;2022-07-22T13:36:29;4.87;;;1.30;;
71622;SDS011;59473;53.214;5.728;2022-07-22T13:38:57;2.45;;;0.95;;
71622;SDS011;59473;53.214;5.728;2022-07-22T13:41:22;5.57;;;1.20;;
71622;SDS011;59473;53.214;5.728;2022-07-22T13:43:48;6.13;;;1.40;;
71622;SDS011;59473;53.214;5.728;2022-07-22T13:46:14;3.35;;;1.08;;
71622;SDS011;59473;53.214;5.728;2022-07-22T13:48:39;5.13;;;0.90;;
71622;SDS011;59473;53.214;5.728;2022-07-22T13:51:04;3.60;;;1.00;;
71622;SDS011;59473;53.214;5.728;2022-07-22T13:53:30;5.47;;;1.00;;
71622;SDS011;59473;53.214;5.728;2022-07-22T13:55:55;4.93;;;1.20;;
71622;SDS011;59473;53.214;5.728;2022-07-22T13:58:20;4.27;;;1.17;;
71622;SDS011;59473;53.214;5.728;2022-07-22T14:00:46;5.40;;;1.10;;
71622;SDS011;59473;53.214;5.728;2022-07-22T14:03:11;5.63;;;1.00;;
71622;SDS011;59473;53.214;5.728;2022-07-22T14:05:36;5.53;;;1.33;;
71622;SDS011;59473;53.214;5.728;2022-07-22T14:08:01;4.17;;;0.90;;
71622;SDS011;59473;53.214;5.728;2022-07-22T14:10:27;5.18;;;1.10;;
71622;SDS011;59473;53.214;5.728;2022-07-22T14:12:52;5.37;;;0.97;;
71622;SDS011;59473;53.214;5.728;2022-07-22T14:15:17;3.37;;;0.97;;
71622;SDS011;59473;53.214;5.728;2022-07-22T14:17:42;4.10;;;1.40;;
71622;SDS011;59473;53.214;5.728;2022-07-22T14:20:08;6.70;;;1.00;;
71622;SDS011;59473;53.214;5.728;2022-07-22T14:22:33;5.40;;;1.00;;
71622;SDS011;59473;53.214;5.728;2022-07-22T14:24:59;6.30;;;1.15;;
71622;SDS011;59473;53.214;5.728;2022-07-22T14:27:24;5.63;;;1.10;;
71622;SDS011;59473;53.214;5.728;2022-07-22T14:29:49;9.93;;;1.30;;
71622;SDS011;59473;53.214;5.728;2022-07-22T14:32:14;7.17;;;1.00;;
71622;SDS011;59473;53.214;5.728;2022-07-22T14:34:40;8.77;;;1.17;;
71622;SDS011;59473;53.214;5.728;2022-07-22T14:37:05;6.47;;;1.33;;
71622;SDS011;59473;53.214;5.728;2022-07-22T14:39:30;4.23;;;1.07;;
71622;SDS011;59473;53.214;5.728;2022-07-22T14:41:56;5.47;;;1.20;;
71622;SDS011;59473;53.214;5.728;2022-07-22T14:44:21;6.90;;;1.50;;
71622;SDS011;59473;53.214;5.728;2022-07-22T14:46:46;4.67;;;1.10;;
71622;SDS011;59473;53.214;5.728;2022-07-22T14:49:11;4.37;;;1.03;;
71622;SDS011;59473;53.214;5.728;2022-07-22T14:51:36;7.67;;;0.97;;
71622;SDS011;59473;53.214;5.728;2022-07-22T14:54:02;4.60;;;0.90;;
71622;SDS011;59473;53.214;5.728;2022-07-22T14:56:27;3.03;;;0.83;;
71622;SDS011;59473;53.214;5.728;2022-07-22T14:58:52;2.10;;;0.70;;